Terminal Aerodrome Forecast
Issued by NWS Lake Charles, LA

Home | Current Version | Previous Version | Text Only | Print | Product List | Glossary On
Versions: 1 2 3 4 5 6 7 8 9 10 11 12 13 14 15 16 17 18
000
FTUS44 KLCH 280520
TAFBPT
TAF
KBPT 280520Z 2806/2906 03005KT P6SM -SHRA SCT025 BKN100
      TEMPO 2807/2810 3SM SHRA SCT015 BKN035
     FM281000 05009KT P6SM VCSH SCT025 BKN120
      TEMPO 2810/2814 5SM BR
     FM281500 07010KT P6SM VCTS FEW015CB SCT030 BKN050 PROB30
      2816/2822 3SM TSRA BKN015CB OVC030
     FM290000 07008KT P6SM FEW050 SCT100=

USA.gov is the U.S. government's official web portal to all federal, state and local government web resources and services.